Аэропорт: Оренбург-Центральный. Оренбург

ICAO: UWOO

METAR:
2020-10-19 22:30:00
UWOO 192230Z 12002MPS CAVOK 07/M05 Q1012 R08/65D NOSIG RMK QFE749/0998
METAR:
2020-10-19 19:57:00
TAF UWOO 191957Z 1921/2021 34003G09MPS 9999 BKN030 TX13/2010Z TN05/2001Z TEMPO 1921/2006 VRB01MPS 6000 -SHRA BKN016CB FM200600 33006G13MPS 9999 BKN020 TEMPO 2006/2021 31003G08MPS 6000 -SHRA FEW007 BKN016CB